sensor_id;sensor_type;location;lat;lon;timestamp;P1;durP1;ratioP1;P2;durP2;ratioP2
24216;SDS011;12356;49.386;8.688;2024-02-21T00:01:44;16.02;;;5.53;;
24216;SDS011;12356;49.386;8.688;2024-02-21T00:04:15;15.15;;;5.35;;
24216;SDS011;12356;49.386;8.688;2024-02-21T00:06:46;20.13;;;6.00;;
24216;SDS011;12356;49.386;8.688;2024-02-21T00:09:16;19.13;;;6.18;;
24216;SDS011;12356;49.386;8.688;2024-02-21T00:11:49;16.98;;;6.03;;
24216;SDS011;12356;49.386;8.688;2024-02-21T00:14:19;16.02;;;5.28;;
24216;SDS011;12356;49.386;8.688;2024-02-21T00:16:50;16.15;;;5.70;;
24216;SDS011;12356;49.386;8.688;2024-02-21T00:19:20;21.30;;;6.10;;
24216;SDS011;12356;49.386;8.688;2024-02-21T00:21:51;17.85;;;5.82;;
24216;SDS011;12356;49.386;8.688;2024-02-21T00:24:21;13.38;;;5.65;;
24216;SDS011;12356;49.386;8.688;2024-02-21T00:26:53;16.02;;;5.43;;
24216;SDS011;12356;49.386;8.688;2024-02-21T00:29:24;17.20;;;5.50;;
24216;SDS011;12356;49.386;8.688;2024-02-21T00:31:54;17.52;;;5.88;;
24216;SDS011;12356;49.386;8.688;2024-02-21T00:34:25;15.13;;;5.50;;
24216;SDS011;12356;49.386;8.688;2024-02-21T00:36:55;15.35;;;6.05;;
24216;SDS011;12356;49.386;8.688;2024-02-21T00:39:27;16.05;;;5.53;;
24216;SDS011;12356;49.386;8.688;2024-02-21T00:41:57;13.10;;;5.65;;
24216;SDS011;12356;49.386;8.688;2024-02-21T00:44:28;15.93;;;6.13;;
24216;SDS011;12356;49.386;8.688;2024-02-21T00:46:58;14.77;;;5.57;;
24216;SDS011;12356;49.386;8.688;2024-02-21T00:49:29;14.65;;;6.03;;
24216;SDS011;12356;49.386;8.688;2024-02-21T00:52:00;17.63;;;5.55;;
24216;SDS011;12356;49.386;8.688;2024-02-21T00:54:30;18.90;;;5.53;;
24216;SDS011;12356;49.386;8.688;2024-02-21T00:57:01;14.18;;;5.65;;
24216;SDS011;12356;49.386;8.688;2024-02-21T00:59:31;16.20;;;5.55;;
24216;SDS011;12356;49.386;8.688;2024-02-21T01:02:02;12.95;;;5.13;;
24216;SDS011;12356;49.386;8.688;2024-02-21T01:04:32;19.58;;;5.30;;
24216;SDS011;12356;49.386;8.688;2024-02-21T01:07:04;23.25;;;5.93;;
24216;SDS011;12356;49.386;8.688;2024-02-21T01:09:35;11.75;;;5.40;;
24216;SDS011;12356;49.386;8.688;2024-02-21T01:12:05;15.82;;;5.57;;
24216;SDS011;12356;49.386;8.688;2024-02-21T01:14:36;18.13;;;6.07;;
24216;SDS011;12356;49.386;8.688;2024-02-21T01:17:06;15.35;;;5.90;;
24216;SDS011;12356;49.386;8.688;2024-02-21T01:19:37;18.63;;;5.80;;
24216;SDS011;12356;49.386;8.688;2024-02-21T01:22:08;18.08;;;5.55;;
24216;SDS011;12356;49.386;8.688;2024-02-21T01:24:39;17.27;;;5.75;;
24216;SDS011;12356;49.386;8.688;2024-02-21T01:27:09;13.32;;;5.43;;
24216;SDS011;12356;49.386;8.688;2024-02-21T01:29:40;17.60;;;5.40;;
24216;SDS011;12356;49.386;8.688;2024-02-21T01:32:10;13.00;;;5.47;;
24216;SDS011;12356;49.386;8.688;2024-02-21T01:34:41;14.15;;;5.55;;
24216;SDS011;12356;49.386;8.688;2024-02-21T01:37:11;17.00;;;5.63;;
24216;SDS011;12356;49.386;8.688;2024-02-21T01:39:42;11.98;;;5.38;;
24216;SDS011;12356;49.386;8.688;2024-02-21T01:42:13;15.68;;;5.40;;
24216;SDS011;12356;49.386;8.688;2024-02-21T01:44:43;17.20;;;6.05;;
24216;SDS011;12356;49.386;8.688;2024-02-21T01:47:14;16.45;;;5.40;;
24216;SDS011;12356;49.386;8.688;2024-02-21T01:49:45;17.33;;;5.80;;
24216;SDS011;12356;49.386;8.688;2024-02-21T01:52:15;16.00;;;4.97;;
24216;SDS011;12356;49.386;8.688;2024-02-21T01:54:47;16.23;;;5.63;;
24216;SDS011;12356;49.386;8.688;2024-02-21T01:57:18;15.75;;;5.47;;
24216;SDS011;12356;49.386;8.688;2024-02-21T01:59:48;15.77;;;5.50;;
24216;SDS011;12356;49.386;8.688;2024-02-21T02:02:19;17.85;;;5.43;;
24216;SDS011;12356;49.386;8.688;2024-02-21T02:04:51;13.23;;;5.32;;
24216;SDS011;12356;49.386;8.688;2024-02-21T02:07:22;12.82;;;5.18;;
24216;SDS011;12356;49.386;8.688;2024-02-21T02:09:53;15.88;;;5.45;;
24216;SDS011;12356;49.386;8.688;2024-02-21T02:12:23;15.35;;;5.43;;
24216;SDS011;12356;49.386;8.688;2024-02-21T02:14:58;12.95;;;5.10;;
24216;SDS011;12356;49.386;8.688;2024-02-21T02:17:29;14.63;;;5.40;;
24216;SDS011;12356;49.386;8.688;2024-02-21T02:20:00;15.98;;;5.35;;
24216;SDS011;12356;49.386;8.688;2024-02-21T02:22:31;14.82;;;5.40;;
24216;SDS011;12356;49.386;8.688;2024-02-21T02:25:03;16.30;;;5.60;;
24216;SDS011;12356;49.386;8.688;2024-02-21T02:27:41;15.98;;;5.45;;
24216;SDS011;12356;49.386;8.688;2024-02-21T02:30:13;20.27;;;5.72;;
24216;SDS011;12356;49.386;8.688;2024-02-21T02:32:45;15.68;;;5.80;;
24216;SDS011;12356;49.386;8.688;2024-02-21T02:35:18;14.35;;;5.60;;
24216;SDS011;12356;49.386;8.688;2024-02-21T02:37:49;16.88;;;5.60;;
24216;SDS011;12356;49.386;8.688;2024-02-21T02:40:20;13.57;;;5.35;;
24216;SDS011;12356;49.386;8.688;2024-02-21T02:42:51;15.15;;;5.70;;
24216;SDS011;12356;49.386;8.688;2024-02-21T02:45:24;14.68;;;5.60;;
24216;SDS011;12356;49.386;8.688;2024-02-21T02:47:56;17.33;;;5.47;;
24216;SDS011;12356;49.386;8.688;2024-02-21T02:50:27;17.48;;;5.60;;
24216;SDS011;12356;49.386;8.688;2024-02-21T02:52:58;17.30;;;5.75;;
24216;SDS011;12356;49.386;8.688;2024-02-21T02:55:28;16.60;;;5.53;;
24216;SDS011;12356;49.386;8.688;2024-02-21T02:57:59;13.25;;;5.07;;
24216;SDS011;12356;49.386;8.688;2024-02-21T03:00:30;13.77;;;5.28;;
24216;SDS011;12356;49.386;8.688;2024-02-21T03:03:01;13.57;;;4.93;;
24216;SDS011;12356;49.386;8.688;2024-02-21T03:05:33;17.98;;;5.70;;
24216;SDS011;12356;49.386;8.688;2024-02-21T03:08:04;15.43;;;5.35;;
24216;SDS011;12356;49.386;8.688;2024-02-21T03:10:37;18.02;;;5.80;;
24216;SDS011;12356;49.386;8.688;2024-02-21T03:13:08;13.50;;;5.43;;
24216;SDS011;12356;49.386;8.688;2024-02-21T03:15:39;16.10;;;5.50;;
24216;SDS011;12356;49.386;8.688;2024-02-21T03:18:09;13.85;;;4.95;;
24216;SDS011;12356;49.386;8.688;2024-02-21T03:20:40;17.45;;;5.25;;
24216;SDS011;12356;49.386;8.688;2024-02-21T03:23:11;12.45;;;4.72;;
24216;SDS011;12356;49.386;8.688;2024-02-21T03:25:41;11.88;;;4.97;;
24216;SDS011;12356;49.386;8.688;2024-02-21T03:28:12;13.82;;;5.30;;
24216;SDS011;12356;49.386;8.688;2024-02-21T03:30:42;17.38;;;5.20;;
24216;SDS011;12356;49.386;8.688;2024-02-21T03:33:13;15.95;;;5.50;;
24216;SDS011;12356;49.386;8.688;2024-02-21T03:35:44;17.23;;;4.95;;
24216;SDS011;12356;49.386;8.688;2024-02-21T03:38:14;18.45;;;5.20;;
24216;SDS011;12356;49.386;8.688;2024-02-21T03:40:45;14.30;;;5.57;;
24216;SDS011;12356;49.386;8.688;2024-02-21T03:43:15;14.25;;;5.10;;
24216;SDS011;12356;49.386;8.688;2024-02-21T03:45:46;16.05;;;5.07;;
24216;SDS011;12356;49.386;8.688;2024-02-21T03:48:16;13.10;;;5.20;;
24216;SDS011;12356;49.386;8.688;2024-02-21T03:50:47;15.32;;;4.70;;
24216;SDS011;12356;49.386;8.688;2024-02-21T03:53:18;14.50;;;4.82;;
24216;SDS011;12356;49.386;8.688;2024-02-21T03:55:48;18.30;;;4.80;;
24216;SDS011;12356;49.386;8.688;2024-02-21T03:58:19;15.95;;;4.80;;
24216;SDS011;12356;49.386;8.688;2024-02-21T04:00:49;13.65;;;4.97;;
24216;SDS011;12356;49.386;8.688;2024-02-21T04:03:20;11.70;;;4.70;;
24216;SDS011;12356;49.386;8.688;2024-02-21T04:05:50;9.57;;;4.40;;
24216;SDS011;12356;49.386;8.688;2024-02-21T04:08:22;13.20;;;4.70;;
24216;SDS011;12356;49.386;8.688;2024-02-21T04:10:53;14.77;;;4.70;;
24216;SDS011;12356;49.386;8.688;2024-02-21T04:13:23;12.85;;;4.43;;
24216;SDS011;12356;49.386;8.688;2024-02-21T04:15:54;15.00;;;4.63;;
24216;SDS011;12356;49.386;8.688;2024-02-21T04:18:24;15.80;;;5.15;;
24216;SDS011;12356;49.386;8.688;2024-02-21T04:20:55;15.63;;;4.70;;
24216;SDS011;12356;49.386;8.688;2024-02-21T04:23:25;17.13;;;5.15;;
24216;SDS011;12356;49.386;8.688;2024-02-21T04:25:56;15.18;;;4.70;;
24216;SDS011;12356;49.386;8.688;2024-02-21T04:28:26;14.77;;;4.25;;
24216;SDS011;12356;49.386;8.688;2024-02-21T04:30:57;16.70;;;4.63;;
24216;SDS011;12356;49.386;8.688;2024-02-21T04:33:27;15.32;;;4.80;;
24216;SDS011;12356;49.386;8.688;2024-02-21T04:35:58;11.85;;;4.47;;
24216;SDS011;12356;49.386;8.688;2024-02-21T04:38:30;14.35;;;4.65;;
24216;SDS011;12356;49.386;8.688;2024-02-21T04:41:01;17.63;;;4.72;;
24216;SDS011;12356;49.386;8.688;2024-02-21T04:43:32;9.90;;;4.32;;
24216;SDS011;12356;49.386;8.688;2024-02-21T04:46:02;12.80;;;4.70;;
24216;SDS011;12356;49.386;8.688;2024-02-21T04:48:34;14.75;;;5.15;;
24216;SDS011;12356;49.386;8.688;2024-02-21T04:51:04;20.33;;;5.05;;
24216;SDS011;12356;49.386;8.688;2024-02-21T04:53:35;15.60;;;5.18;;
24216;SDS011;12356;49.386;8.688;2024-02-21T04:56:06;15.40;;;4.80;;
24216;SDS011;12356;49.386;8.688;2024-02-21T04:58:40;14.00;;;4.43;;
24216;SDS011;12356;49.386;8.688;2024-02-21T05:01:10;11.85;;;4.60;;
24216;SDS011;12356;49.386;8.688;2024-02-21T05:03:41;13.30;;;4.55;;
24216;SDS011;12356;49.386;8.688;2024-02-21T05:06:11;12.63;;;5.00;;
24216;SDS011;12356;49.386;8.688;2024-02-21T05:08:42;12.63;;;4.35;;
24216;SDS011;12356;49.386;8.688;2024-02-21T05:11:12;14.35;;;4.25;;
24216;SDS011;12356;49.386;8.688;2024-02-21T05:13:43;14.63;;;4.60;;
24216;SDS011;12356;49.386;8.688;2024-02-21T05:16:14;11.60;;;4.57;;
24216;SDS011;12356;49.386;8.688;2024-02-21T05:18:44;13.23;;;4.57;;
24216;SDS011;12356;49.386;8.688;2024-02-21T05:21:15;15.32;;;4.60;;
24216;SDS011;12356;49.386;8.688;2024-02-21T05:23:45;11.40;;;4.43;;
24216;SDS011;12356;49.386;8.688;2024-02-21T05:26:20;16.17;;;4.68;;
24216;SDS011;12356;49.386;8.688;2024-02-21T05:28:52;11.57;;;4.38;;
24216;SDS011;12356;49.386;8.688;2024-02-21T05:31:23;14.82;;;4.80;;
24216;SDS011;12356;49.386;8.688;2024-02-21T05:33:53;15.90;;;4.57;;
24216;SDS011;12356;49.386;8.688;2024-02-21T05:36:24;11.23;;;4.45;;
24216;SDS011;12356;49.386;8.688;2024-02-21T05:38:55;15.55;;;4.30;;
24216;SDS011;12356;49.386;8.688;2024-02-21T05:41:25;13.32;;;5.30;;
24216;SDS011;12356;49.386;8.688;2024-02-21T05:43:57;12.98;;;5.10;;
24216;SDS011;12356;49.386;8.688;2024-02-21T05:46:27;16.77;;;5.10;;
24216;SDS011;12356;49.386;8.688;2024-02-21T05:48:58;13.23;;;5.97;;
24216;SDS011;12356;49.386;8.688;2024-02-21T05:51:32;15.85;;;5.57;;
24216;SDS011;12356;49.386;8.688;2024-02-21T05:54:03;18.75;;;5.80;;
24216;SDS011;12356;49.386;8.688;2024-02-21T05:56:34;11.60;;;4.85;;
24216;SDS011;12356;49.386;8.688;2024-02-21T05:59:04;13.27;;;4.88;;
24216;SDS011;12356;49.386;8.688;2024-02-21T06:01:35;14.48;;;4.80;;
24216;SDS011;12356;49.386;8.688;2024-02-21T06:04:05;11.73;;;5.10;;
24216;SDS011;12356;49.386;8.688;2024-02-21T06:06:36;14.52;;;4.75;;
24216;SDS011;12356;49.386;8.688;2024-02-21T06:09:06;12.25;;;5.07;;
24216;SDS011;12356;49.386;8.688;2024-02-21T06:11:37;13.88;;;5.20;;
24216;SDS011;12356;49.386;8.688;2024-02-21T06:14:07;14.75;;;4.70;;
24216;SDS011;12356;49.386;8.688;2024-02-21T06:16:38;14.07;;;5.03;;
24216;SDS011;12356;49.386;8.688;2024-02-21T06:19:09;12.40;;;4.70;;
24216;SDS011;12356;49.386;8.688;2024-02-21T06:21:39;12.68;;;4.47;;
24216;SDS011;12356;49.386;8.688;2024-02-21T06:24:10;14.27;;;4.88;;
24216;SDS011;12356;49.386;8.688;2024-02-21T06:26:42;12.65;;;5.15;;
24216;SDS011;12356;49.386;8.688;2024-02-21T06:29:13;11.43;;;4.50;;
24216;SDS011;12356;49.386;8.688;2024-02-21T06:31:43;11.20;;;4.53;;
24216;SDS011;12356;49.386;8.688;2024-02-21T06:34:14;14.05;;;4.90;;
24216;SDS011;12356;49.386;8.688;2024-02-21T06:36:44;10.32;;;4.68;;
24216;SDS011;12356;49.386;8.688;2024-02-21T06:39:15;11.60;;;4.88;;
24216;SDS011;12356;49.386;8.688;2024-02-21T06:41:46;14.68;;;5.30;;
24216;SDS011;12356;49.386;8.688;2024-02-21T06:44:18;12.07;;;4.47;;
24216;SDS011;12356;49.386;8.688;2024-02-21T06:46:48;13.48;;;5.00;;
24216;SDS011;12356;49.386;8.688;2024-02-21T06:49:19;10.68;;;4.40;;
24216;SDS011;12356;49.386;8.688;2024-02-21T06:51:49;14.35;;;4.88;;
24216;SDS011;12356;49.386;8.688;2024-02-21T06:54:20;10.43;;;4.93;;
24216;SDS011;12356;49.386;8.688;2024-02-21T06:56:50;11.43;;;4.65;;
24216;SDS011;12356;49.386;8.688;2024-02-21T06:59:21;11.02;;;4.32;;
24216;SDS011;12356;49.386;8.688;2024-02-21T07:01:53;11.82;;;4.50;;
24216;SDS011;12356;49.386;8.688;2024-02-21T07:04:25;12.88;;;4.97;;
24216;SDS011;12356;49.386;8.688;2024-02-21T07:06:57;13.88;;;4.68;;
24216;SDS011;12356;49.386;8.688;2024-02-21T07:09:27;16.05;;;5.03;;
24216;SDS011;12356;49.386;8.688;2024-02-21T07:12:01;11.25;;;4.85;;
24216;SDS011;12356;49.386;8.688;2024-02-21T07:14:33;14.43;;;4.47;;
24216;SDS011;12356;49.386;8.688;2024-02-21T07:17:05;12.77;;;4.75;;
24216;SDS011;12356;49.386;8.688;2024-02-21T07:19:35;13.75;;;5.15;;
24216;SDS011;12356;49.386;8.688;2024-02-21T07:22:06;14.50;;;4.70;;
24216;SDS011;12356;49.386;8.688;2024-02-21T07:24:37;14.48;;;4.45;;
24216;SDS011;12356;49.386;8.688;2024-02-21T07:27:07;11.80;;;4.93;;
24216;SDS011;12356;49.386;8.688;2024-02-21T07:29:38;16.40;;;4.47;;
24216;SDS011;12356;49.386;8.688;2024-02-21T07:32:08;11.90;;;4.50;;
24216;SDS011;12356;49.386;8.688;2024-02-21T07:34:39;11.50;;;4.82;;
24216;SDS011;12356;49.386;8.688;2024-02-21T07:37:09;14.00;;;5.13;;
24216;SDS011;12356;49.386;8.688;2024-02-21T07:39:40;12.73;;;4.72;;
24216;SDS011;12356;49.386;8.688;2024-02-21T07:42:11;12.45;;;4.47;;
24216;SDS011;12356;49.386;8.688;2024-02-21T07:44:41;13.23;;;4.97;;
24216;SDS011;12356;49.386;8.688;2024-02-21T07:47:12;10.80;;;4.70;;
24216;SDS011;12356;49.386;8.688;2024-02-21T07:49:46;13.90;;;4.53;;
24216;SDS011;12356;49.386;8.688;2024-02-21T07:52:18;15.60;;;4.93;;
24216;SDS011;12356;49.386;8.688;2024-02-21T07:54:49;14.43;;;5.03;;
24216;SDS011;12356;49.386;8.688;2024-02-21T07:57:20;19.70;;;5.00;;
24216;SDS011;12356;49.386;8.688;2024-02-21T07:59:51;13.15;;;4.47;;
24216;SDS011;12356;49.386;8.688;2024-02-21T08:02:22;13.98;;;4.82;;
24216;SDS011;12356;49.386;8.688;2024-02-21T08:04:53;13.52;;;4.60;;
24216;SDS011;12356;49.386;8.688;2024-02-21T08:07:23;11.73;;;4.47;;
24216;SDS011;12356;49.386;8.688;2024-02-21T08:09:54;14.52;;;4.28;;
24216;SDS011;12356;49.386;8.688;2024-02-21T08:12:24;14.95;;;4.57;;
24216;SDS011;12356;49.386;8.688;2024-02-21T08:14:55;13.05;;;4.90;;
24216;SDS011;12356;49.386;8.688;2024-02-21T08:17:25;12.48;;;4.85;;
24216;SDS011;12356;49.386;8.688;2024-02-21T08:19:56;12.45;;;4.57;;
24216;SDS011;12356;49.386;8.688;2024-02-21T08:22:27;13.25;;;4.82;;
24216;SDS011;12356;49.386;8.688;2024-02-21T08:24:57;12.77;;;4.95;;
24216;SDS011;12356;49.386;8.688;2024-02-21T08:27:28;12.80;;;5.10;;
24216;SDS011;12356;49.386;8.688;2024-02-21T08:29:58;12.88;;;4.97;;
24216;SDS011;12356;49.386;8.688;2024-02-21T08:32:29;14.32;;;5.05;;
24216;SDS011;12356;49.386;8.688;2024-02-21T08:35:00;17.75;;;5.15;;
24216;SDS011;12356;49.386;8.688;2024-02-21T08:37:30;11.70;;;4.88;;
24216;SDS011;12356;49.386;8.688;2024-02-21T08:40:01;13.88;;;4.68;;
24216;SDS011;12356;49.386;8.688;2024-02-21T08:42:41;14.82;;;5.13;;
24216;SDS011;12356;49.386;8.688;2024-02-21T08:45:12;11.38;;;4.97;;
24216;SDS011;12356;49.386;8.688;2024-02-21T08:47:42;18.05;;;5.45;;
24216;SDS011;12356;49.386;8.688;2024-02-21T08:50:14;14.00;;;5.35;;
24216;SDS011;12356;49.386;8.688;2024-02-21T08:52:44;14.23;;;5.03;;
24216;SDS011;12356;49.386;8.688;2024-02-21T08:55:15;16.48;;;5.07;;
24216;SDS011;12356;49.386;8.688;2024-02-21T08:57:45;11.32;;;5.07;;
24216;SDS011;12356;49.386;8.688;2024-02-21T09:00:16;15.15;;;5.03;;
24216;SDS011;12356;49.386;8.688;2024-02-21T09:02:47;12.32;;;4.47;;
24216;SDS011;12356;49.386;8.688;2024-02-21T09:05:18;13.75;;;4.90;;
24216;SDS011;12356;49.386;8.688;2024-02-21T09:07:48;13.60;;;5.43;;
24216;SDS011;12356;49.386;8.688;2024-02-21T09:10:19;13.10;;;5.18;;
24216;SDS011;12356;49.386;8.688;2024-02-21T09:12:50;9.88;;;4.53;;
24216;SDS011;12356;49.386;8.688;2024-02-21T09:15:21;16.63;;;5.15;;
24216;SDS011;12356;49.386;8.688;2024-02-21T09:17:51;17.40;;;4.50;;
24216;SDS011;12356;49.386;8.688;2024-02-21T09:20:22;12.70;;;4.95;;
24216;SDS011;12356;49.386;8.688;2024-02-21T09:22:53;11.18;;;4.93;;
24216;SDS011;12356;49.386;8.688;2024-02-21T09:25:23;10.77;;;4.80;;
24216;SDS011;12356;49.386;8.688;2024-02-21T09:27:54;13.45;;;4.72;;
24216;SDS011;12356;49.386;8.688;2024-02-21T09:30:25;13.45;;;4.90;;
24216;SDS011;12356;49.386;8.688;2024-02-21T09:32:55;10.35;;;4.10;;
24216;SDS011;12356;49.386;8.688;2024-02-21T09:35:28;13.60;;;4.60;;
24216;SDS011;12356;49.386;8.688;2024-02-21T09:37:59;11.80;;;5.00;;
24216;SDS011;12356;49.386;8.688;2024-02-21T09:40:31;12.18;;;5.10;;
24216;SDS011;12356;49.386;8.688;2024-02-21T09:43:02;15.68;;;4.55;;
24216;SDS011;12356;49.386;8.688;2024-02-21T09:45:39;11.48;;;4.70;;
24216;SDS011;12356;49.386;8.688;2024-02-21T09:50:56;14.43;;;4.68;;
24216;SDS011;12356;49.386;8.688;2024-02-21T09:53:29;15.80;;;4.93;;
24216;SDS011;12356;49.386;8.688;2024-02-21T09:56:02;13.90;;;4.88;;
24216;SDS011;12356;49.386;8.688;2024-02-21T09:58:33;11.32;;;4.57;;
24216;SDS011;12356;49.386;8.688;2024-02-21T10:01:04;14.73;;;4.63;;
24216;SDS011;12356;49.386;8.688;2024-02-21T10:03:37;12.60;;;4.28;;
24216;SDS011;12356;49.386;8.688;2024-02-21T10:06:08;15.43;;;4.47;;
24216;SDS011;12356;49.386;8.688;2024-02-21T10:08:39;13.38;;;4.50;;
24216;SDS011;12356;49.386;8.688;2024-02-21T10:11:09;9.30;;;4.03;;
24216;SDS011;12356;49.386;8.688;2024-02-21T10:13:40;11.88;;;4.18;;
24216;SDS011;12356;49.386;8.688;2024-02-21T10:16:11;12.10;;;4.10;;
24216;SDS011;12356;49.386;8.688;2024-02-21T10:18:42;11.35;;;4.13;;
24216;SDS011;12356;49.386;8.688;2024-02-21T10:21:13;13.32;;;4.15;;
24216;SDS011;12356;49.386;8.688;2024-02-21T10:23:47;12.68;;;4.72;;
24216;SDS011;12356;49.386;8.688;2024-02-21T10:26:19;10.25;;;4.18;;
24216;SDS011;12356;49.386;8.688;2024-02-21T10:28:50;13.52;;;4.15;;
24216;SDS011;12356;49.386;8.688;2024-02-21T10:31:24;16.40;;;4.22;;
24216;SDS011;12356;49.386;8.688;2024-02-21T10:33:57;13.48;;;3.50;;
24216;SDS011;12356;49.386;8.688;2024-02-21T10:36:29;11.20;;;3.38;;
24216;SDS011;12356;49.386;8.688;2024-02-21T10:38:59;9.57;;;3.53;;
24216;SDS011;12356;49.386;8.688;2024-02-21T10:41:30;12.35;;;3.47;;
24216;SDS011;12356;49.386;8.688;2024-02-21T10:44:02;8.57;;;3.30;;
24216;SDS011;12356;49.386;8.688;2024-02-21T10:46:36;9.35;;;3.53;;
24216;SDS011;12356;49.386;8.688;2024-02-21T10:49:10;9.10;;;3.33;;
24216;SDS011;12356;49.386;8.688;2024-02-21T10:51:43;8.30;;;3.30;;
24216;SDS011;12356;49.386;8.688;2024-02-21T10:54:25;9.60;;;3.33;;
24216;SDS011;12356;49.386;8.688;2024-02-21T10:57:04;10.75;;;3.30;;
24216;SDS011;12356;49.386;8.688;2024-02-21T11:02:07;8.05;;;3.08;;
24216;SDS011;12356;49.386;8.688;2024-02-21T11:04:38;7.18;;;3.22;;
24216;SDS011;12356;49.386;8.688;2024-02-21T11:07:10;10.15;;;3.00;;
24216;SDS011;12356;49.386;8.688;2024-02-21T11:09:50;8.88;;;2.90;;
24216;SDS011;12356;49.386;8.688;2024-02-21T11:12:25;10.10;;;3.03;;
24216;SDS011;12356;49.386;8.688;2024-02-21T11:15:06;10.20;;;3.00;;
24216;SDS011;12356;49.386;8.688;2024-02-21T11:17:38;9.82;;;2.70;;
24216;SDS011;12356;49.386;8.688;2024-02-21T11:20:14;11.02;;;2.90;;
24216;SDS011;12356;49.386;8.688;2024-02-21T11:22:45;8.10;;;3.17;;
24216;SDS011;12356;49.386;8.688;2024-02-21T11:27:58;8.75;;;2.80;;
24216;SDS011;12356;49.386;8.688;2024-02-21T11:30:30;8.65;;;2.88;;
24216;SDS011;12356;49.386;8.688;2024-02-21T11:33:03;10.48;;;2.72;;
24216;SDS011;12356;49.386;8.688;2024-02-21T11:35:37;7.88;;;3.03;;
24216;SDS011;12356;49.386;8.688;2024-02-21T11:38:11;9.80;;;2.85;;
24216;SDS011;12356;49.386;8.688;2024-02-21T11:40:46;10.15;;;2.95;;
24216;SDS011;12356;49.386;8.688;2024-02-21T11:43:17;13.00;;;2.95;;
24216;SDS011;12356;49.386;8.688;2024-02-21T11:45:48;8.98;;;2.92;;
24216;SDS011;12356;49.386;8.688;2024-02-21T11:48:18;10.23;;;2.58;;
24216;SDS011;12356;49.386;8.688;2024-02-21T11:50:54;9.55;;;3.00;;
24216;SDS011;12356;49.386;8.688;2024-02-21T11:53:25;10.02;;;2.70;;
24216;SDS011;12356;49.386;8.688;2024-02-21T11:56:00;9.50;;;2.75;;
24216;SDS011;12356;49.386;8.688;2024-02-21T11:58:31;7.72;;;2.45;;
24216;SDS011;12356;49.386;8.688;2024-02-21T12:01:02;10.13;;;2.78;;
24216;SDS011;12356;49.386;8.688;2024-02-21T12:03:34;7.45;;;2.40;;
24216;SDS011;12356;49.386;8.688;2024-02-21T12:06:06;10.48;;;2.85;;
24216;SDS011;12356;49.386;8.688;2024-02-21T12:08:40;9.23;;;2.50;;
24216;SDS011;12356;49.386;8.688;2024-02-21T12:11:22;6.70;;;2.72;;
24216;SDS011;12356;49.386;8.688;2024-02-21T12:14:01;10.85;;;2.83;;
24216;SDS011;12356;49.386;8.688;2024-02-21T12:16:35;11.90;;;2.58;;
24216;SDS011;12356;49.386;8.688;2024-02-21T12:19:07;10.30;;;2.67;;
24216;SDS011;12356;49.386;8.688;2024-02-21T12:21:39;6.10;;;2.40;;
24216;SDS011;12356;49.386;8.688;2024-02-21T12:24:14;7.30;;;2.72;;
24216;SDS011;12356;49.386;8.688;2024-02-21T12:26:54;7.90;;;2.38;;
24216;SDS011;12356;49.386;8.688;2024-02-21T12:29:26;8.77;;;2.75;;
24216;SDS011;12356;49.386;8.688;2024-02-21T12:31:58;10.00;;;2.78;;
24216;SDS011;12356;49.386;8.688;2024-02-21T12:34:29;7.63;;;2.58;;
24216;SDS011;12356;49.386;8.688;2024-02-21T12:39:33;7.30;;;2.65;;
24216;SDS011;12356;49.386;8.688;2024-02-21T12:42:04;12.52;;;2.70;;
24216;SDS011;12356;49.386;8.688;2024-02-21T12:44:35;7.88;;;2.60;;
24216;SDS011;12356;49.386;8.688;2024-02-21T12:47:05;6.95;;;2.15;;
24216;SDS011;12356;49.386;8.688;2024-02-21T12:49:36;7.65;;;2.67;;
24216;SDS011;12356;49.386;8.688;2024-02-21T12:52:07;9.77;;;2.40;;
24216;SDS011;12356;49.386;8.688;2024-02-21T12:54:37;9.10;;;2.83;;
24216;SDS011;12356;49.386;8.688;2024-02-21T12:57:08;9.68;;;2.80;;
24216;SDS011;12356;49.386;8.688;2024-02-21T12:59:39;7.45;;;2.58;;
24216;SDS011;12356;49.386;8.688;2024-02-21T13:02:09;8.52;;;2.00;;
24216;SDS011;12356;49.386;8.688;2024-02-21T13:04:40;9.00;;;2.53;;
24216;SDS011;12356;49.386;8.688;2024-02-21T13:07:11;10.55;;;2.40;;
24216;SDS011;12356;49.386;8.688;2024-02-21T13:09:42;6.65;;;1.98;;
24216;SDS011;12356;49.386;8.688;2024-02-21T13:12:12;9.30;;;2.40;;
24216;SDS011;12356;49.386;8.688;2024-02-21T13:14:44;12.25;;;2.40;;
24216;SDS011;12356;49.386;8.688;2024-02-21T13:17:15;6.30;;;2.20;;
24216;SDS011;12356;49.386;8.688;2024-02-21T13:19:46;8.00;;;2.40;;
24216;SDS011;12356;49.386;8.688;2024-02-21T13:22:17;8.18;;;2.55;;
24216;SDS011;12356;49.386;8.688;2024-02-21T13:24:50;6.13;;;2.00;;
24216;SDS011;12356;49.386;8.688;2024-02-21T13:27:21;5.68;;;1.95;;
24216;SDS011;12356;49.386;8.688;2024-02-21T13:30:04;6.47;;;2.53;;
24216;SDS011;12356;49.386;8.688;2024-02-21T13:32:37;7.45;;;2.25;;
24216;SDS011;12356;49.386;8.688;2024-02-21T13:35:08;6.00;;;1.77;;
24216;SDS011;12356;49.386;8.688;2024-02-21T13:37:41;8.48;;;2.13;;
24216;SDS011;12356;49.386;8.688;2024-02-21T13:40:12;7.07;;;1.90;;
24216;SDS011;12356;49.386;8.688;2024-02-21T13:42:43;6.43;;;2.38;;
24216;SDS011;12356;49.386;8.688;2024-02-21T13:45:14;6.00;;;2.13;;
24216;SDS011;12356;49.386;8.688;2024-02-21T13:47:44;8.38;;;2.35;;
24216;SDS011;12356;49.386;8.688;2024-02-21T13:50:15;10.32;;;2.60;;
24216;SDS011;12356;49.386;8.688;2024-02-21T13:52:47;8.85;;;1.85;;
24216;SDS011;12356;49.386;8.688;2024-02-21T13:55:17;7.97;;;2.10;;
24216;SDS011;12356;49.386;8.688;2024-02-21T13:57:48;7.30;;;2.17;;
24216;SDS011;12356;49.386;8.688;2024-02-21T14:00:19;6.88;;;2.05;;
24216;SDS011;12356;49.386;8.688;2024-02-21T14:02:50;8.00;;;2.10;;
24216;SDS011;12356;49.386;8.688;2024-02-21T14:05:21;8.60;;;2.15;;
24216;SDS011;12356;49.386;8.688;2024-02-21T14:07:51;9.52;;;2.45;;
24216;SDS011;12356;49.386;8.688;2024-02-21T14:12:55;7.15;;;2.28;;
24216;SDS011;12356;49.386;8.688;2024-02-21T14:15:27;7.82;;;2.13;;
24216;SDS011;12356;49.386;8.688;2024-02-21T14:17:57;7.57;;;2.30;;
24216;SDS011;12356;49.386;8.688;2024-02-21T14:20:28;6.15;;;1.90;;
24216;SDS011;12356;49.386;8.688;2024-02-21T14:23:00;7.78;;;2.20;;
24216;SDS011;12356;49.386;8.688;2024-02-21T14:25:31;7.80;;;2.03;;
24216;SDS011;12356;49.386;8.688;2024-02-21T14:28:03;6.68;;;2.20;;
24216;SDS011;12356;49.386;8.688;2024-02-21T14:30:34;8.43;;;2.10;;
24216;SDS011;12356;49.386;8.688;2024-02-21T14:33:04;7.95;;;2.05;;
24216;SDS011;12356;49.386;8.688;2024-02-21T14:35:35;7.72;;;2.30;;
24216;SDS011;12356;49.386;8.688;2024-02-21T14:38:06;5.75;;;1.88;;
24216;SDS011;12356;49.386;8.688;2024-02-21T14:40:37;7.45;;;2.15;;
24216;SDS011;12356;49.386;8.688;2024-02-21T14:43:07;6.50;;;1.77;;
24216;SDS011;12356;49.386;8.688;2024-02-21T14:45:39;8.93;;;2.15;;
24216;SDS011;12356;49.386;8.688;2024-02-21T14:48:10;8.50;;;2.10;;
24216;SDS011;12356;49.386;8.688;2024-02-21T14:50:40;7.60;;;2.30;;
24216;SDS011;12356;49.386;8.688;2024-02-21T14:53:12;4.97;;;1.77;;
24216;SDS011;12356;49.386;8.688;2024-02-21T14:55:43;5.22;;;2.00;;
24216;SDS011;12356;49.386;8.688;2024-02-21T14:58:13;5.70;;;2.03;;
24216;SDS011;12356;49.386;8.688;2024-02-21T15:00:45;7.40;;;2.27;;
24216;SDS011;12356;49.386;8.688;2024-02-21T15:03:16;7.45;;;2.10;;
24216;SDS011;12356;49.386;8.688;2024-02-21T15:05:50;7.60;;;2.53;;
24216;SDS011;12356;49.386;8.688;2024-02-21T15:08:21;7.03;;;2.08;;
24216;SDS011;12356;49.386;8.688;2024-02-21T15:10:51;7.65;;;1.90;;
24216;SDS011;12356;49.386;8.688;2024-02-21T15:13:22;8.90;;;2.25;;
24216;SDS011;12356;49.386;8.688;2024-02-21T15:15:53;5.28;;;1.90;;